Time;durP1;ratioP1;P1;durP2;ratioP2;P2;SDS_P1;SDS_P2;PMS_P1;PMS_P2;Temp;Humidity;BMP_temperature;BMP_pressure;BME280_temperature;BME280_humidity;BME280_pressure;Samples;Min_cycle;Max_cycle;Signal;HPM_P1;HPM_P2
2021/12/23 00:00:58;;;;;;;18.77;9.35;;;;;;;-2.18;100.00;101125.69;5277463;28;20031;-77
2021/12/23 00:03:28;;;;;;;19.30;9.07;;;;;;;-2.17;100.00;101117.19;5277101;28;20477;-77
2021/12/23 00:05:58;;;;;;;17.33;8.15;;;;;;;-2.13;100.00;101124.09;5277730;28;20022;-76
2021/12/23 00:08:29;;;;;;;19.63;9.65;;;;;;;-2.31;100.00;101120.25;5271863;28;20046;-77
2021/12/23 00:10:59;;;;;;;19.17;9.43;;;;;;;-2.29;100.00;101111.81;5268185;28;20515;-77
2021/12/23 00:13:33;;;;;;;18.50;9.07;;;;;;;-2.22;100.00;101110.22;5277709;28;20488;-77
2021/12/23 00:16:06;;;;;;;20.50;9.25;;;;;;;-2.37;100.00;101102.22;5277084;28;21311;-77
2021/12/23 00:24:00;;;;;;;24.00;10.32;;;;;;;-2.49;100.00;101087.41;5274383;28;20035;-77
2021/12/23 00:26:31;;;;;;;24.98;10.02;;;;;;;-2.48;100.00;101084.00;5296857;22;20043;-79
2021/12/23 00:29:01;;;;;;;20.10;9.13;;;;;;;-2.51;100.00;101075.44;5275184;27;20476;-79
2021/12/23 00:31:31;;;;;;;18.40;8.80;;;;;;;-2.38;100.00;101080.88;5301545;27;20031;-79
2021/12/23 00:34:02;;;;;;;22.25;9.85;;;;;;;-2.45;100.00;101086.69;5297370;27;20476;-79
2021/12/23 00:36:32;;;;;;;21.02;9.95;;;;;;;-2.38;100.00;101080.88;5285436;27;20019;-79
2021/12/23 00:39:06;;;;;;;20.92;10.32;;;;;;;-2.32;100.00;101075.03;5322008;27;20345;-79
2021/12/23 00:41:36;;;;;;;20.83;10.20;;;;;;;-2.22;100.00;101056.47;5304913;27;20035;-79
2021/12/23 00:44:07;;;;;;;21.45;9.88;;;;;;;-2.27;100.00;101051.28;5318662;27;20026;-79
2021/12/23 00:46:37;;;;;;;19.67;9.40;;;;;;;-2.22;100.00;101047.13;5302774;27;20106;-79
2021/12/23 00:49:08;;;;;;;19.90;9.90;;;;;;;-2.49;100.00;101049.03;5318754;27;20022;-79
2021/12/23 00:51:38;;;;;;;20.88;9.70;;;;;;;-2.46;100.00;101050.81;5322688;27;20027;-79
2021/12/23 00:54:08;;;;;;;20.88;10.23;;;;;;;-2.41;100.00;101047.53;5321571;27;20034;-79
2021/12/23 00:56:38;;;;;;;20.65;9.70;;;;;;;-2.45;100.00;101040.63;5322041;27;20022;-79
2021/12/23 00:59:09;;;;;;;20.40;9.63;;;;;;;-2.53;100.00;101031.88;5318136;27;20019;-78
2021/12/23 01:01:39;;;;;;;22.30;10.20;;;;;;;-2.40;100.00;101036.47;5321072;27;20018;-79
2021/12/23 01:04:10;;;;;;;22.98;10.68;;;;;;;-2.52;100.00;101035.34;5288059;27;20024;-80
2021/12/23 01:06:40;;;;;;;20.52;9.80;;;;;;;-2.54;100.00;101027.59;5297941;27;20016;-78
2021/12/23 01:09:10;;;;;;;22.77;10.63;;;;;;;-2.48;100.00;101012.38;5303026;27;20015;-79
2021/12/23 01:11:41;;;;;;;23.13;10.60;;;;;;;-2.38;100.00;101011.78;5323559;27;20034;-79
2021/12/23 01:19:36;;;;;;;26.77;10.95;;;;;;;-2.56;100.00;101008.81;5319304;27;20034;-79
2021/12/23 01:22:08;;;;;;;24.60;11.40;;;;;;;-2.63;100.00;101001.81;5307839;27;20152;-79
2021/12/23 01:24:39;;;;;;;20.10;10.20;;;;;;;-2.45;100.00;101015.03;5294217;27;20026;-79
2021/12/23 01:27:09;;;;;;;24.63;11.00;;;;;;;-2.42;100.00;101010.00;5296119;27;20094;-78
2021/12/23 01:29:39;;;;;;;26.83;10.85;;;;;;;-2.42;100.00;100997.19;5317517;27;20033;-79
2021/12/23 01:32:10;;;;;;;21.55;10.88;;;;;;;-2.02;100.00;100979.31;5301952;27;20399;-79
2021/12/23 01:34:40;;;;;;;22.35;10.57;;;;;;;-2.11;100.00;100968.91;5318305;27;20060;-79
2021/12/23 01:37:10;;;;;;;25.38;10.88;;;;;;;-2.17;100.00;100966.19;5302450;27;20022;-79
2021/12/23 01:39:41;;;;;;;25.67;10.82;;;;;;;-2.20;100.00;100958.44;5313189;27;20038;-79
2021/12/23 01:42:11;;;;;;;21.45;10.18;;;;;;;-2.21;100.00;100960.97;5293625;27;20083;-79
2021/12/23 01:44:41;;;;;;;23.13;10.93;;;;;;;-2.08;100.00;100952.72;5320272;27;20605;-79
2021/12/23 01:47:11;;;;;;;19.30;9.98;;;;;;;-2.28;100.00;100944.66;5298438;27;20023;-78
2021/12/23 01:49:42;;;;;;;22.83;10.15;;;;;;;-2.16;100.00;100938.91;5301949;27;20030;-79
2021/12/23 01:52:12;;;;;;;23.15;10.13;;;;;;;-2.16;100.00;100924.41;5316704;27;20035;-79
2021/12/23 01:54:42;;;;;;;24.33;10.65;;;;;;;-2.28;100.00;100911.38;5319269;27;20075;-79
2021/12/23 01:57:13;;;;;;;23.13;10.23;;;;;;;-2.14;100.00;100912.50;5320794;27;20117;-79
2021/12/23 01:59:44;;;;;;;24.33;10.43;;;;;;;-2.12;100.00;100905.75;5320588;27;20097;-79
2021/12/23 02:02:14;;;;;;;22.20;10.32;;;;;;;-2.40;100.00;100906.00;5297629;27;20043;-79
2021/12/23 02:04:44;;;;;;;22.38;10.35;;;;;;;-2.30;100.00;100905.34;5320656;27;20503;-79
2021/12/23 02:07:15;;;;;;;23.63;10.30;;;;;;;-2.26;100.00;100908.84;5316470;27;20639;-79
2021/12/23 02:09:45;;;;;;;23.45;10.43;;;;;;;-2.21;100.00;100922.56;5309408;27;20038;-78
2021/12/23 02:12:16;;;;;;;21.27;10.27;;;;;;;-2.31;100.00;100908.72;5314832;27;20023;-79
2021/12/23 02:14:47;;;;;;;20.95;10.27;;;;;;;-2.27;100.00;100907.09;5302350;27;20096;-79
2021/12/23 02:17:17;;;;;;;23.23;11.02;;;;;;;-2.29;100.00;100907.09;5324832;27;20027;-79
2021/12/23 02:19:53;;;;;;;21.90;10.02;;;;;;;-2.30;100.00;100905.34;5302900;27;20026;-79
2021/12/23 02:22:24;;;;;;;19.30;9.45;;;;;;;-2.02;100.00;100904.22;5318302;27;20019;-79
2021/12/23 02:24:54;;;;;;;20.85;9.98;;;;;;;-2.05;100.00;100892.22;5313465;27;20022;-79
2021/12/23 02:27:24;;;;;;;18.33;9.25;;;;;;;-2.04;100.00;100888.81;5319046;27;20018;-79
2021/12/23 02:29:55;;;;;;;25.88;9.85;;;;;;;-1.98;100.00;100877.84;5321691;27;20030;-79
2021/12/23 02:32:25;;;;;;;19.05;8.98;;;;;;;-1.96;100.00;100876.16;5322375;27;20471;-79
2021/12/23 02:34:55;;;;;;;20.55;9.88;;;;;;;-1.94;100.00;100885.63;5302587;27;20175;-79
2021/12/23 02:37:26;;;;;;;18.05;9.23;;;;;;;-1.73;100.00;100868.09;5325128;27;20031;-79
2021/12/23 02:39:56;;;;;;;21.17;9.52;;;;;;;-1.70;100.00;100861.31;5294117;27;20110;-79
2021/12/23 02:42:26;;;;;;;20.70;9.27;;;;;;;-1.75;100.00;100859.50;5325459;27;20033;-79
2021/12/23 02:44:58;;;;;;;17.75;8.05;;;;;;;-1.68;100.00;100856.22;5329731;27;20044;-79
2021/12/23 02:47:28;;;;;;;18.50;8.70;;;;;;;-1.73;100.00;100855.28;5322895;27;20019;-79
2021/12/23 02:49:58;;;;;;;21.45;9.85;;;;;;;-1.78;100.00;100847.50;5304122;27;20254;-79
2021/12/23 02:52:30;;;;;;;18.52;9.27;;;;;;;-1.83;100.00;100850.81;5303125;27;20080;-79
2021/12/23 02:55:00;;;;;;;20.65;9.48;;;;;;;-1.89;100.00;100843.03;5325159;27;20027;-79
2021/12/23 02:57:31;;;;;;;18.27;9.05;;;;;;;-1.95;100.00;100837.81;5322464;27;20048;-79
2021/12/23 03:00:05;;;;;;;16.95;8.70;;;;;;;-1.87;100.00;100841.34;5300714;27;20063;-79
2021/12/23 03:02:39;;;;;;;19.67;9.55;;;;;;;-1.81;100.00;100833.78;5302247;27;20023;-79
2021/12/23 03:05:10;;;;;;;21.00;9.18;;;;;;;-1.83;100.00;100833.75;5323779;27;20026;-79
2021/12/23 03:07:40;;;;;;;22.05;9.88;;;;;;;-1.68;100.00;100830.59;5319946;27;20026;-79
2021/12/23 03:10:11;;;;;;;18.85;9.57;;;;;;;-1.71;100.00;100817.75;5310123;27;20370;-79
2021/12/23 03:12:42;;;;;;;23.27;10.15;;;;;;;-1.92;100.00;100831.84;5300548;27;20022;-79
2021/12/23 03:15:12;;;;;;;19.58;9.30;;;;;;;-1.85;100.00;100820.91;5319578;27;20031;-79
2021/12/23 03:17:43;;;;;;;22.02;9.35;;;;;;;-1.76;100.00;100811.69;5305145;27;20015;-79
2021/12/23 03:20:13;;;;;;;22.23;10.02;;;;;;;-1.88;100.00;100814.88;5319790;27;20069;-79
2021/12/23 03:22:44;;;;;;;24.75;10.73;;;;;;;-1.99;100.00;100807.84;5308794;27;20015;-79
2021/12/23 03:25:14;;;;;;;20.65;9.52;;;;;;;-1.88;100.00;100797.78;5319549;27;20021;-78
2021/12/23 03:27:44;;;;;;;21.65;9.88;;;;;;;-1.73;100.00;100783.56;5319696;27;20022;-79
2021/12/23 03:30:14;;;;;;;20.60;10.00;;;;;;;-1.72;100.00;100780.16;5304771;27;20019;-79
2021/12/23 03:32:45;;;;;;;19.35;9.57;;;;;;;-1.91;100.00;100774.69;5323735;27;20096;-79
2021/12/23 03:35:16;;;;;;;21.50;9.50;;;;;;;-2.02;100.00;100771.97;5319790;27;20037;-78
2021/12/23 03:37:47;;;;;;;21.30;9.65;;;;;;;-1.92;100.00;100761.06;5304038;27;20551;-79
2021/12/23 03:40:17;;;;;;;20.83;9.98;;;;;;;-1.94;100.00;100765.28;5317735;27;20087;-78
2021/12/23 03:42:47;;;;;;;19.10;9.50;;;;;;;-1.87;100.00;100764.53;5314444;27;20106;-79
2021/12/23 03:45:18;;;;;;;21.27;10.02;;;;;;;-2.04;100.00;100757.41;5297514;27;20076;-79
2021/12/23 03:47:50;;;;;;;19.48;10.18;;;;;;;-2.08;100.00;100753.94;5300519;27;20068;-79
2021/12/23 03:50:23;;;;;;;21.30;10.15;;;;;;;-2.10;100.00;100741.94;5323444;27;20127;-78
2021/12/23 03:52:53;;;;;;;21.23;9.65;;;;;;;-2.11;100.00;100738.53;5300186;27;20023;-79
2021/12/23 03:55:24;;;;;;;19.67;9.73;;;;;;;-2.20;100.00;100732.41;5322268;27;20023;-78
2021/12/23 03:57:54;;;;;;;18.90;9.48;;;;;;;-2.11;100.00;100725.75;5302230;27;20030;-79
2021/12/23 04:00:25;;;;;;;19.95;8.98;;;;;;;-1.94;100.00;100714.09;5321330;27;20510;-79
2021/12/23 04:02:55;;;;;;;20.50;9.20;;;;;;;-1.96;100.00;100725.13;5319550;27;20110;-79
2021/12/23 04:05:25;;;;;;;23.38;10.07;;;;;;;-1.73;100.00;100716.97;5323302;27;20670;-78
2021/12/23 04:07:56;;;;;;;24.25;10.13;;;;;;;-1.81;100.00;100704.06;5319882;27;20050;-79
2021/12/23 04:10:26;;;;;;;21.90;9.73;;;;;;;-1.81;100.00;100710.84;5316072;27;20068;-79
2021/12/23 04:12:56;;;;;;;21.63;10.02;;;;;;;-1.88;100.00;100707.34;5318237;27;20023;-78
2021/12/23 04:15:27;;;;;;;21.52;9.55;;;;;;;-1.63;100.00;100704.34;5320443;27;20027;-79
2021/12/23 04:17:57;;;;;;;20.98;9.90;;;;;;;-1.46;100.00;100691.75;5324719;27;20029;-79
2021/12/23 04:20:53;;;;;;;22.67;9.93;;;;;;;-1.41;100.00;100690.97;5302286;27;20027;-78
2021/12/23 04:23:26;;;;;;;21.75;9.88;;;;;;;-1.72;100.00;100687.97;5319231;27;20038;-78
2021/12/23 04:25:57;;;;;;;21.10;9.85;;;;;;;-1.81;100.00;100681.00;5323897;27;20434;-78
2021/12/23 04:28:28;;;;;;;19.05;9.00;;;;;;;-1.77;100.00;100676.81;5301771;27;20487;-78
2021/12/23 04:30:58;;;;;;;21.70;9.70;;;;;;;-1.77;100.00;100666.56;5321188;27;20023;-78
2021/12/23 04:33:28;;;;;;;20.08;10.25;;;;;;;-1.89;100.00;100658.69;5299844;27;20110;-78
2021/12/23 04:35:58;;;;;;;20.48;10.15;;;;;;;-1.85;100.00;100655.31;5320642;27;20150;-79
2021/12/23 04:38:29;;;;;;;23.90;10.73;;;;;;;-1.81;100.00;100647.72;5296303;27;20027;-79
2021/12/23 04:40:59;;;;;;;22.02;10.35;;;;;;;-1.90;100.00;100636.47;5301788;27;20404;-79
2021/12/23 04:43:29;;;;;;;21.40;10.05;;;;;;;-1.94;100.00;100647.53;5322667;27;20055;-78
2021/12/23 04:46:00;;;;;;;20.33;9.60;;;;;;;-1.84;100.00;100641.69;5321932;27;20440;-79
2021/12/23 04:48:31;;;;;;;24.77;10.27;;;;;;;-1.73;100.00;100645.28;5319750;27;20050;-78
2021/12/23 04:51:01;;;;;;;21.25;10.40;;;;;;;-1.86;100.00;100640.81;5301564;27;20030;-79
2021/12/23 04:53:32;;;;;;;21.77;9.77;;;;;;;-1.74;100.00;100654.63;5319447;27;20031;-78
2021/12/23 04:56:03;;;;;;;22.20;11.02;;;;;;;-1.62;100.00;100639.44;5299688;27;20106;-78
2021/12/23 04:58:33;;;;;;;23.52;10.13;;;;;;;-1.74;100.00;100652.06;5299289;27;20027;-79
2021/12/23 05:01:06;;;;;;;20.40;10.25;;;;;;;-1.66;100.00;100647.94;5303880;27;20038;-79
2021/12/23 05:03:36;;;;;;;20.38;9.77;;;;;;;-1.78;100.00;100655.44;5303079;27;20019;-79
2021/12/23 05:06:07;;;;;;;21.00;9.90;;;;;;;-1.82;100.00;100646.00;5303120;27;20040;-78
2021/12/23 05:08:37;;;;;;;21.73;9.70;;;;;;;-1.75;100.00;100637.56;5319049;27;20030;-79
2021/12/23 05:11:07;;;;;;;20.60;10.07;;;;;;;-1.68;100.00;100633.38;5313227;27;20062;-79
2021/12/23 05:13:38;;;;;;;19.95;9.18;;;;;;;-1.76;100.00;100635.84;5320961;27;20038;-79
2021/12/23 05:16:08;;;;;;;19.45;9.80;;;;;;;-1.45;100.00;100621.72;5318189;27;20515;-78
2021/12/23 05:18:39;;;;;;;19.77;9.13;;;;;;;-1.61;100.00;100635.22;5317837;27;20102;-78
2021/12/23 05:21:09;;;;;;;20.33;9.52;;;;;;;-1.53;100.00;100637.03;5321303;27;20388;-79
2021/12/23 05:23:39;;;;;;;20.98;9.82;;;;;;;-1.53;100.00;100643.84;5321434;27;20074;-79
2021/12/23 05:26:09;;;;;;;20.05;9.52;;;;;;;-1.64;100.00;100642.81;5328518;27;20536;-78
2021/12/23 05:28:40;;;;;;;18.88;9.40;;;;;;;-1.57;100.00;100636.97;5298826;27;20019;-79
2021/12/23 05:31:10;;;;;;;22.10;9.38;;;;;;;-1.73;100.00;100637.59;5321511;27;20049;-78
2021/12/23 05:33:40;;;;;;;20.00;9.80;;;;;;;-1.58;100.00;100635.25;5317229;27;20019;-79
2021/12/23 05:36:11;;;;;;;18.02;9.15;;;;;;;-1.64;100.00;100627.47;5321355;27;20023;-78
2021/12/23 05:38:41;;;;;;;21.13;9.43;;;;;;;-1.73;100.00;100624.78;5315185;27;20053;-78
2021/12/23 05:41:11;;;;;;;18.70;9.57;;;;;;;-1.64;100.00;100620.66;5313551;27;20027;-79
2021/12/23 05:43:42;;;;;;;18.13;8.98;;;;;;;-1.58;100.00;100609.63;5322337;27;20038;-79
2021/12/23 05:46:12;;;;;;;21.90;9.38;;;;;;;-1.62;100.00;100611.28;5317326;27;20037;-79
2021/12/23 05:48:42;;;;;;;18.08;8.95;;;;;;;-1.58;100.00;100610.47;5320989;27;20034;-78
2021/12/23 05:51:13;;;;;;;18.15;9.15;;;;;;;-1.67;100.00;100614.59;5317256;27;20033;-78
2021/12/23 05:53:43;;;;;;;22.10;9.65;;;;;;;-1.60;100.00;100598.50;5317826;27;20023;-79
2021/12/23 05:56:13;;;;;;;19.40;9.35;;;;;;;-1.50;100.00;100590.94;5298364;27;20103;-79
2021/12/23 05:58:44;;;;;;;18.08;8.75;;;;;;;-1.49;100.00;100586.66;5303275;27;20457;-79
2021/12/23 06:01:14;;;;;;;20.33;9.77;;;;;;;-1.62;100.00;100584.78;5302987;27;20064;-79
2021/12/23 06:03:46;;;;;;;20.30;9.27;;;;;;;-1.60;100.00;100590.81;5321395;27;20075;-79
2021/12/23 06:06:16;;;;;;;18.05;9.57;;;;;;;-1.57;100.00;100585.72;5318045;27;20551;-79
2021/12/23 06:08:47;;;;;;;22.08;9.10;;;;;;;-1.57;100.00;100580.59;5299900;27;20109;-79
2021/12/23 06:11:17;;;;;;;19.00;9.50;;;;;;;-1.44;100.00;100578.22;5323122;27;20061;-79
2021/12/23 06:13:47;;;;;;;19.67;9.85;;;;;;;-1.60;100.00;100576.28;5322072;27;20111;-79
2021/12/23 06:16:17;;;;;;;20.10;9.32;;;;;;;-1.62;100.00;100565.16;5307263;27;20031;-79
2021/12/23 06:18:48;;;;;;;23.65;9.82;;;;;;;-1.51;100.00;100557.63;5305011;27;20016;-79
2021/12/23 06:21:19;;;;;;;20.90;9.73;;;;;;;-1.55;100.00;100527.69;5325193;27;20039;-79
2021/12/23 06:23:49;;;;;;;24.42;9.98;;;;;;;-1.37;100.00;100527.91;5304708;27;20025;-79
2021/12/23 06:26:21;;;;;;;20.73;10.00;;;;;;;-1.30;100.00;100534.78;5343283;22;21154;-80
2021/12/23 06:28:51;;;;;;;17.95;9.18;;;;;;;-1.29;100.00;100533.94;5298494;28;20023;-79
2021/12/23 06:31:22;;;;;;;19.55;9.27;;;;;;;-1.36;100.00;100529.63;5272784;28;20131;-79
2021/12/23 06:33:52;;;;;;;19.88;9.38;;;;;;;-1.43;100.00;100532.97;5302914;28;20027;-81
2021/12/23 06:36:22;;;;;;;17.75;9.27;;;;;;;-1.28;100.00;100522.84;5248593;28;20029;-80
2021/12/23 06:38:53;;;;;;;22.15;9.63;;;;;;;-1.24;100.00;100517.78;5273749;28;20100;-76
2021/12/23 06:41:23;;;;;;;17.73;9.32;;;;;;;-1.35;100.00;100519.41;5273821;28;20153;-79
2021/12/23 06:43:53;;;;;;;24.42;10.48;;;;;;;-1.36;100.00;100514.25;5276489;28;20026;-80
2021/12/23 06:46:24;;;;;;;20.83;10.02;;;;;;;-1.24;100.00;100504.13;5234893;28;20078;-82
2021/12/23 06:48:54;;;;;;;20.73;9.70;;;;;;;-1.32;100.00;100505.72;5240559;28;20019;-79
2021/12/23 06:51:27;;;;;;;19.55;9.88;;;;;;;-1.29;100.00;100504.06;5276607;28;20495;-79
2021/12/23 06:53:59;;;;;;;22.90;10.57;;;;;;;-1.31;100.00;100495.50;5273617;28;20020;-79
2021/12/23 06:56:30;;;;;;;20.77;9.82;;;;;;;-1.30;100.00;100481.84;5272860;28;20048;-79
2021/12/23 06:59:00;;;;;;;19.30;9.60;;;;;;;-1.41;100.00;100495.41;5278840;28;20066;-79
2021/12/23 07:01:30;;;;;;;20.75;10.07;;;;;;;-1.43;100.00;100491.97;5280963;28;20028;-79
2021/12/23 07:06:35;;;;;;;20.70;9.98;;;;;;;-1.25;100.00;100466.53;5281006;28;20032;-79
2021/12/23 07:09:06;;;;;;;21.13;9.65;;;;;;;-1.17;100.00;100462.31;5278143;28;20031;-78
2021/12/23 07:11:36;;;;;;;18.88;9.77;;;;;;;-1.23;100.00;100459.72;5283630;28;20107;-81
2021/12/23 07:14:07;;;;;;;19.40;9.77;;;;;;;-1.14;100.00;100447.84;5245291;28;20028;-80
2021/12/23 07:16:38;;;;;;;21.20;10.10;;;;;;;-1.13;100.00;100440.97;5260117;28;20114;-81
2021/12/23 07:19:08;;;;;;;19.83;9.45;;;;;;;-1.02;100.00;100434.25;5280409;28;20023;-80
2021/12/23 07:21:39;;;;;;;21.35;10.10;;;;;;;-1.06;100.00;100427.38;5281571;28;20469;-78
2021/12/23 07:24:09;;;;;;;22.92;9.63;;;;;;;-0.92;100.00;100415.53;5280392;28;20207;-79
2021/12/23 07:26:39;;;;;;;18.85;8.82;;;;;;;-0.93;100.00;100404.41;5257879;28;20016;-80
2021/12/23 07:29:10;;;;;;;17.15;8.68;;;;;;;-1.00;100.00;100394.09;5276785;28;20035;-78
2021/12/23 07:31:40;;;;;;;17.02;9.13;;;;;;;-0.91;100.00;100381.34;5259656;28;20652;-78
2021/12/23 07:34:10;;;;;;;17.40;8.07;;;;;;;-0.97;100.00;100377.03;5262353;28;20467;-77
2021/12/23 07:36:42;;;;;;;16.92;7.85;;;;;;;-0.82;100.00;100376.28;5247745;28;20020;-80
2021/12/23 07:39:12;;;;;;;16.67;8.15;;;;;;;-0.73;100.00;100373.78;5263899;28;20079;-80
2021/12/23 07:41:43;;;;;;;15.98;8.38;;;;;;;-0.74;100.00;100390.03;5269376;28;20036;-81
2021/12/23 07:44:20;;;;;;;18.92;9.18;;;;;;;-0.55;100.00;100382.44;5251340;28;20067;-81
2021/12/23 07:46:50;;;;;;;19.17;8.23;;;;;;;-0.66;100.00;100372.97;5266206;28;20094;-82
2021/12/23 07:49:21;;;;;;;17.75;8.70;;;;;;;-0.51;100.00;100367.91;5258019;28;20020;-77
2021/12/23 07:51:51;;;;;;;17.48;8.77;;;;;;;-0.52;100.00;100356.78;5254671;28;20086;-79
2021/12/23 07:54:21;;;;;;;16.85;7.75;;;;;;;-0.50;100.00;100354.22;5253250;28;20111;-80
2021/12/23 07:56:52;;;;;;;15.35;7.15;;;;;;;-0.46;100.00;100338.88;5252435;28;20115;-80
2021/12/23 07:59:22;;;;;;;13.70;7.35;;;;;;;-0.49;100.00;100345.69;5244942;28;20134;-78
2021/12/23 08:01:52;;;;;;;12.40;6.72;;;;;;;-0.61;100.00;100350.75;5239210;28;20042;-78
2021/12/23 08:04:23;;;;;;;17.05;7.93;;;;;;;-0.60;100.00;100337.06;5256629;28;20401;-80
2021/12/23 08:06:57;;;;;;;17.27;8.38;;;;;;;-0.57;100.00;100352.50;5283498;28;20023;-78
2021/12/23 08:09:28;;;;;;;17.00;7.30;;;;;;;-0.54;100.00;100334.56;5264583;28;20150;-80
2021/12/23 08:12:05;;;;;;;14.50;7.68;;;;;;;-0.54;100.00;100337.94;5251154;28;20389;-80
2021/12/23 08:14:36;;;;;;;16.20;8.18;;;;;;;-0.74;100.00;100328.47;5282395;28;20053;-78
2021/12/23 08:17:06;;;;;;;20.10;8.65;;;;;;;-0.69;100.00;100304.53;5275841;28;20032;-79
2021/12/23 08:19:36;;;;;;;17.95;8.60;;;;;;;-0.59;100.00;100331.94;5270883;28;20078;-79
2021/12/23 08:22:07;;;;;;;19.38;8.85;;;;;;;-0.43;100.00;100366.22;5249106;28;20080;-79
2021/12/23 08:24:38;;;;;;;18.98;9.10;;;;;;;-0.34;100.00;100366.28;5280391;28;20062;-78
2021/12/23 08:27:08;;;;;;;19.15;9.27;;;;;;;-0.48;100.00;100349.97;5248944;28;20036;-78
2021/12/23 08:29:39;;;;;;;21.35;8.60;;;;;;;-0.44;100.00;100343.97;5274765;28;20035;-80
2021/12/23 08:32:09;;;;;;;18.98;9.13;;;;;;;-0.37;100.00;100340.63;5251604;28;20114;-78
2021/12/23 08:34:40;;;;;;;16.98;8.63;;;;;;;-0.35;100.00;100341.47;5276312;28;20050;-79
2021/12/23 08:37:11;;;;;;;17.35;8.85;;;;;;;-0.38;100.00;100346.59;5254928;28;20117;-79
2021/12/23 08:39:43;;;;;;;17.33;8.50;;;;;;;-0.17;100.00;100334.72;5249593;28;20026;-79
2021/12/23 08:42:13;;;;;;;17.20;8.07;;;;;;;-0.29;100.00;100320.94;5266291;28;20588;-81
2021/12/23 08:44:43;;;;;;;20.58;9.10;;;;;;;-0.24;100.00;100311.59;5279652;28;20267;-81
2021/12/23 08:47:14;;;;;;;16.10;8.35;;;;;;;-0.16;100.00;100318.44;5244349;28;20024;-81
2021/12/23 08:49:45;;;;;;;17.42;9.07;;;;;;;-0.17;100.00;100314.16;5256724;28;20038;-79
2021/12/23 08:52:15;;;;;;;17.00;8.93;;;;;;;-0.20;100.00;100311.56;5261172;28;20082;-79
2021/12/23 08:54:46;;;;;;;17.95;9.27;;;;;;;-0.14;100.00;100333.84;5280475;28;20031;-79
2021/12/23 08:57:16;;;;;;;19.70;9.30;;;;;;;-0.33;100.00;100320.09;5241897;28;20077;-81
2021/12/23 08:59:47;;;;;;;19.15;8.77;;;;;;;-0.27;100.00;100316.69;5260265;28;20062;-79
2021/12/23 09:02:17;;;;;;;19.60;9.13;;;;;;;-0.09;100.00;100298.75;5265114;28;20039;-81
2021/12/23 09:04:47;;;;;;;17.95;9.27;;;;;;;-0.23;100.00;100315.88;5276750;28;20024;-81
2021/12/23 09:07:18;;;;;;;17.52;9.35;;;;;;;-0.34;100.00;100314.94;5278677;28;20034;-81
2021/12/23 09:09:51;;;;;;;17.48;8.63;;;;;;;-0.55;100.00;100296.91;5268223;28;20016;-81
2021/12/23 09:12:21;;;;;;;17.88;9.07;;;;;;;-0.34;100.00;100297.00;5272737;28;20024;-80
2021/12/23 09:14:52;;;;;;;21.02;8.93;;;;;;;-0.32;100.00;100300.41;5262317;28;20023;-81
2021/12/23 09:17:22;;;;;;;18.92;9.88;;;;;;;-0.30;100.00;100324.38;5242472;28;20141;-81
2021/12/23 09:19:53;;;;;;;19.85;9.65;;;;;;;-0.06;100.00;100306.50;5261190;28;20265;-81
2021/12/23 09:22:23;;;;;;;19.92;9.68;;;;;;;-0.15;100.00;100302.19;5272585;28;20020;-80
2021/12/23 09:24:57;;;;;;;19.98;8.93;;;;;;;-0.17;100.00;100324.44;5251819;28;20028;-81
2021/12/23 09:32:52;;;;;;;19.33;9.82;;;;;;;-0.08;100.00;100297.94;5273545;28;20038;-81
2021/12/23 09:35:25;;;;;;;19.67;10.05;;;;;;;-0.14;100.00;100292.75;5242456;28;20035;-80
2021/12/23 09:37:56;;;;;;;19.95;9.32;;;;;;;-0.12;100.00;100301.31;5275755;28;20020;-81
2021/12/23 09:40:32;;;;;;;20.35;10.48;;;;;;;0.05;100.00;100285.09;5276800;28;20036;-81
2021/12/23 09:43:07;;;;;;;21.00;10.18;;;;;;;-0.12;100.00;100275.66;5254451;28;20043;-81
2021/12/23 09:45:41;;;;;;;18.23;9.23;;;;;;;-0.09;100.00;100280.78;5244096;28;20027;-81
2021/12/23 09:48:11;;;;;;;19.67;9.50;;;;;;;-0.10;100.00;100284.22;5251715;28;20530;-80
2021/12/23 09:50:41;;;;;;;17.05;9.68;;;;;;;-0.16;100.00;100271.38;5238934;28;20032;-81
2021/12/23 09:53:15;;;;;;;17.15;8.73;;;;;;;-0.05;100.00;100256.84;5255949;28;20047;-80
2021/12/23 09:55:46;;;;;;;17.25;8.80;;;;;;;0.18;100.00;100236.31;5267226;28;20036;-80
2021/12/23 09:58:18;;;;;;;17.75;9.02;;;;;;;0.09;100.00;100256.00;5277195;28;20095;-81
2021/12/23 10:00:49;;;;;;;18.92;10.07;;;;;;;0.07;100.00;100244.88;5258070;28;20043;-81
2021/12/23 10:03:22;;;;;;;25.25;11.45;;;;;;;0.17;100.00;100219.19;5238458;28;20106;-81
2021/12/23 10:05:53;;;;;;;18.27;9.90;;;;;;;0.17;100.00;100236.28;5254921;28;20058;-80
2021/12/23 10:08:25;;;;;;;21.33;9.90;;;;;;;0.22;100.00;100243.16;5237723;28;20107;-81
2021/12/23 10:11:04;;;;;;;20.13;10.00;;;;;;;0.15;100.00;100200.34;5268114;28;20102;-81
2021/12/23 10:38:47;;;;;;;17.80;8.63;;;;;;;0.50;100.00;100162.63;5280062;28;20122;-81
2021/12/23 10:41:27;;;;;;;22.55;9.52;;;;;;;0.61;100.00;100172.88;5258562;28;20036;-81
2021/12/23 10:44:03;;;;;;;20.08;10.00;;;;;;;0.68;100.00;100172.88;5281587;28;20031;-80
2021/12/23 10:46:40;;;;;;;75.20;31.65;;;;;;;0.72;100.00;100163.44;5280406;28;20036;-80
2021/12/23 10:49:29;;;;;;;56.05;25.17;;;;;;;0.95;100.00;100170.22;5259802;28;20051;-81
2021/12/23 10:52:37;;;;;;;39.75;18.52;;;;;;;1.00;100.00;100171.03;5247829;28;20059;-80
2021/12/23 11:00:30;;;;;;;23.45;11.38;;;;;;;0.97;100.00;100163.34;5276504;28;20043;-81
2021/12/23 11:03:19;;;;;;;20.95;11.20;;;;;;;0.83;100.00;100154.81;5261308;28;20036;-80
2021/12/23 11:06:16;;;;;;;21.75;11.07;;;;;;;0.89;100.00;100154.78;5245203;28;20026;-81
2021/12/23 11:11:46;;;;;;;21.45;11.50;;;;;;;0.87;100.00;100146.22;5271484;28;20032;-80
2021/12/23 11:40:22;;;;;;;31.60;15.88;;;;;;;1.40;100.00;100090.19;5267991;28;20372;-80
2021/12/23 11:43:27;;;;;;;29.15;15.00;;;;;;;1.24;100.00;100087.75;5263127;28;20027;-79
2021/12/23 11:45:56;;;;;;;27.55;15.43;;;;;;;1.30;100.00;100090.25;5291910;28;20121;-79
2021/12/23 11:48:26;;;;;;;32.45;16.42;;;;;;;1.54;100.00;100085.81;5261089;28;20036;-79
2021/12/23 11:51:08;;;;;;;34.40;16.50;;;;;;;1.58;100.00;100073.78;5296965;28;20084;-79
2021/12/23 11:53:38;;;;;;;28.75;15.18;;;;;;;1.54;100.00;100077.25;5290497;28;20397;-78
2021/12/23 11:56:10;;;;;;;29.42;16.20;;;;;;;1.47;100.00;100079.00;5251388;28;20027;-80
2021/12/23 11:58:43;;;;;;;30.05;15.80;;;;;;;1.42;100.00;100072.19;5259956;28;20032;-80
2021/12/23 12:01:24;;;;;;;31.70;16.65;;;;;;;1.50;100.00;100068.69;5248238;28;20494;-80
2021/12/23 12:03:59;;;;;;;35.53;16.48;;;;;;;1.42;100.00;100061.88;5280453;28;20050;-80
2021/12/23 12:06:29;;;;;;;35.33;16.92;;;;;;;1.38;100.00;100061.03;5281233;28;20028;-80
2021/12/23 12:09:25;;;;;;;30.63;16.00;;;;;;;1.45;100.00;100049.84;5260989;28;20445;-80
2021/12/23 12:11:58;;;;;;;36.97;16.65;;;;;;;1.42;100.00;100046.44;5242584;28;20050;-80
2021/12/23 12:14:51;;;;;;;28.88;14.60;;;;;;;1.46;100.00;100038.69;5254660;28;20035;-80
2021/12/23 12:17:24;;;;;;;31.65;15.88;;;;;;;1.53;100.00;100047.19;5275668;28;20034;-80
2021/12/23 12:20:01;;;;;;;31.05;16.15;;;;;;;1.61;100.00;100038.53;5247713;28;20052;-80
2021/12/23 12:22:54;;;;;;;30.23;15.85;;;;;;;1.60;100.00;100041.16;5276660;28;20054;-80
2021/12/23 12:25:24;;;;;;;32.88;15.35;;;;;;;1.60;100.00;100034.25;5273167;28;20093;-80
2021/12/23 12:27:55;;;;;;;33.67;16.73;;;;;;;1.61;100.00;100038.53;5256661;22;1096377;-80
2021/12/23 12:30:40;;;;;;;30.00;15.43;;;;;;;1.61;100.00;100037.69;5270728;27;20035;-81
2021/12/23 12:33:24;;;;;;;30.13;15.35;;;;;;;1.53;100.00;100030.03;5297424;27;20284;-80
2021/12/23 12:36:00;;;;;;;30.15;15.10;;;;;;;1.51;100.00;100018.91;5292786;27;20030;-80
2021/12/23 12:38:30;;;;;;;29.08;15.27;;;;;;;1.48;100.00;100020.63;5281220;28;20129;-79
2021/12/23 12:41:03;;;;;;;32.93;16.97;;;;;;;1.46;100.00;100012.06;5277162;28;20086;-80
2021/12/23 12:46:49;;;;;;;33.40;16.35;;;;;;;1.53;100.00;100003.44;5280462;28;20393;-79
2021/12/23 12:49:25;;;;;;;32.83;15.82;;;;;;;1.61;100.00;99999.91;5259748;28;20230;-80